Northeast Philadelphia Airport
KPNE : rendu visible

Aérodrome :











RETROUVEZ-NOUS SUR...

 
LOGIN :

S'inscrire | Disclaimer

   EN    FR    IT 

 









Légende :    VFR   VFR Marginal   IFR   IFR Intensif   IFR Très Intensif
Visi : 
Plafond : 
>= 8 km
>= 3000ft
5 à 8 km
1000 à 3000 ft
1500m à 5 km
500 à 1000 ft
800 à 1500m
200 à 500 ft
< 800m
< 200 ft
Symboles :   Orages  Brouillard  Fortes neiges  Fortes précipitations  Vent > 20 kt






- Altitude de l'aérodrome : 120 ft


KPNE - Northeast Philadelphia

DERNIER METAR :
  • 241454Z 00000KT 9SM CLR 09/00 A3009 RMK AO2 SLP189 T00940000 50005

METARs EXPIRÉS :
  • 241354Z 00000KT 9SM CLR 05/00 A3009 RMK AO2 SLP191 T00500000
  • 241254Z 00000KT 8SM CLR 03/M01 A3009 RMK AO2 SLP189 T00281011

TAF KPNE
Valide du 24 à 12h jusqu'au 25 à 12h UTC


241120Z 2412/2512 VRB02KT P6SM FEW200
FM241500 21005KT P6SM SCT200
FM242000 20004KT P6SM BKN100
FM250700 VRB02KT P6SM OVC025
FM251100 VRB02KT 6SM -RA BR OVC008



MET'MAP, la Météo Aéronautique d'un coup d'oeil ! - Copyright ORBIFLY Décembre 2007 - Disclaimer

ORBIFLY MET'MAP TEAM :

Programmation & Développement : Alexandra Zaïnal
Sur une idée originale de : Baudouin d'Aumeries
Assistance à la programmation : Marc-Olivier Méhu
Soutien technique & logistique : Manuel Goepfert

Contact : metmap@orbifly.com




SOURCES & CREDITS :

   NOAA       Earth
Advisory